createdAt,value
2022-08-20T00:00:20.768Z,22.79
2022-08-20T00:03:37.101Z,22.32
2022-08-20T00:06:40.351Z,22.52
2022-08-20T00:09:44.384Z,22.61
2022-08-20T00:12:49.220Z,22.63
2022-08-20T00:15:53.048Z,22.64
2022-08-20T00:18:55.732Z,22.64
2022-08-20T00:21:58.953Z,22.65
2022-08-20T00:25:02.121Z,22.73
2022-08-20T00:28:07.087Z,22.66
2022-08-20T00:31:12.135Z,22.56
2022-08-20T00:34:16.353Z,22.52
2022-08-20T00:37:19.371Z,22.66
2022-08-20T00:40:35.642Z,22.44
2022-08-20T00:43:43.415Z,22.52
2022-08-20T00:46:47.529Z,22.56
2022-08-20T00:49:50.204Z,22.37
2022-08-20T00:52:54.029Z,22.34
2022-08-20T00:55:56.663Z,22.53
2022-08-20T00:59:01.082Z,22.37
2022-08-20T01:02:07.907Z,22.31
2022-08-20T01:05:11.520Z,22.57
2022-08-20T01:08:16.928Z,22.41
2022-08-20T01:11:30.450Z,22.26
2022-08-20T01:14:45.442Z,22.35
2022-08-20T01:17:51.463Z,22.48
2022-08-20T01:20:59.775Z,22.43
2022-08-20T01:24:15.987Z,22.33
2022-08-20T01:27:19.358Z,22.44
2022-08-20T01:30:23.727Z,22.34
2022-08-20T01:33:26.700Z,22.28
2022-08-20T01:36:36.075Z,22.12
2022-08-20T01:39:40.553Z,22.13
2022-08-20T01:42:53.983Z,22.30
2022-08-20T01:46:04.660Z,22.14
2022-08-20T01:49:25.339Z,22.10
2022-08-20T01:52:40.421Z,21.98
2022-08-20T01:55:46.155Z,22.10
2022-08-20T01:58:55.856Z,21.92
2022-08-20T02:02:02.686Z,21.87
2022-08-20T02:05:05.897Z,21.92
2022-08-20T02:08:08.530Z,21.80
2022-08-20T02:11:12.914Z,21.92
2022-08-20T02:14:16.648Z,21.97
2022-08-20T02:17:23.227Z,22.10
2022-08-20T02:20:30.317Z,21.96
2022-08-20T02:23:35.770Z,22.09
2022-08-20T02:26:39.102Z,22.06
2022-08-20T02:29:42.270Z,22.04
2022-08-20T02:32:45.322Z,22.06
2022-08-20T02:35:50.278Z,22.01
2022-08-20T02:38:53.076Z,22.02
2022-08-20T02:41:56.115Z,22.30
2022-08-20T02:44:58.853Z,22.48
2022-08-20T02:48:01.946Z,22.40
2022-08-20T02:51:06.926Z,22.06
2022-08-20T02:54:10.232Z,22.13
2022-08-20T02:57:20.273Z,22.04
2022-08-20T03:00:23.557Z,22.07
2022-08-20T03:03:26.200Z,22.31
2022-08-20T03:06:30.161Z,22.08
2022-08-20T03:09:32.968Z,22.05
2022-08-20T03:12:39.007Z,22.34
2022-08-20T03:15:48.050Z,22.04
2022-08-20T03:18:52.017Z,22.02
2022-08-20T03:21:54.850Z,21.71
2022-08-20T03:24:57.749Z,21.69
2022-08-20T03:28:03.833Z,21.85
2022-08-20T03:31:08.145Z,21.68
2022-08-20T03:34:10.913Z,22.03
2022-08-20T03:37:14.181Z,21.92
2022-08-20T03:40:30.902Z,21.67
2022-08-20T03:43:34.050Z,21.77
2022-08-20T03:46:36.649Z,22.02
2022-08-20T03:49:42.601Z,21.46
2022-08-20T03:52:45.285Z,21.53
2022-08-20T03:55:54.067Z,22.01
2022-08-20T03:58:58.316Z,22.04
2022-08-20T04:02:01.519Z,21.67
2022-08-20T04:05:04.753Z,21.76
2022-08-20T04:08:14.783Z,21.90
2022-08-20T04:11:17.872Z,21.50
2022-08-20T04:14:20.714Z,21.65
2022-08-20T04:17:24.403Z,21.84
2022-08-20T04:20:27.193Z,22.27
2022-08-20T04:23:31.315Z,22.05
2022-08-20T04:26:36.364Z,22.42
2022-08-20T04:29:43.115Z,22.60
2022-08-20T04:32:45.597Z,22.74
2022-08-20T04:35:48.792Z,22.14
2022-08-20T04:38:51.775Z,21.75
2022-08-20T04:41:55.081Z,21.93
2022-08-20T04:44:57.890Z,22.13
2022-08-20T04:48:11.669Z,22.37
2022-08-20T04:51:18.071Z,22.51
2022-08-20T04:54:21.217Z,22.49
2022-08-20T04:57:26.225Z,22.21
2022-08-20T05:00:32.158Z,22.36
2022-08-20T05:03:35.685Z,22.44
2022-08-20T05:06:41.229Z,22.76
2022-08-20T05:09:44.330Z,22.30
2022-08-20T05:12:56.914Z,22.67
2022-08-20T05:16:04.946Z,22.52
2022-08-20T05:19:10.835Z,22.37
2022-08-20T05:22:16.573Z,22.60
2022-08-20T05:26:08.319Z,22.88
2022-08-20T05:29:13.254Z,22.77
2022-08-20T05:32:16.391Z,23.77
2022-08-20T05:35:19.482Z,24.05
2022-08-20T05:38:28.929Z,23.37
2022-08-20T05:41:31.970Z,23.06
2022-08-20T05:44:37.682Z,23.11
2022-08-20T05:47:42.840Z,23.22
2022-08-20T05:50:49.319Z,23.08
2022-08-20T05:53:52.280Z,23.34
2022-08-20T05:56:56.490Z,23.42
2022-08-20T06:00:02.814Z,23.64
2022-08-20T06:03:32.549Z,23.29
2022-08-20T06:06:46.096Z,23.14
2022-08-20T06:09:49.968Z,24.09
2022-08-20T06:12:53.343Z,24.73
2022-08-20T06:15:56.878Z,25.12
2022-08-20T06:19:02.758Z,26.44
2022-08-20T06:22:19.896Z,26.97
2022-08-20T06:25:30.018Z,27.61
2022-08-20T06:28:32.691Z,27.15
2022-08-20T06:31:40.121Z,26.54
2022-08-20T06:34:50.423Z,25.68
2022-08-20T06:37:54.193Z,25.44
2022-08-20T06:40:56.820Z,25.27
2022-08-20T06:44:00.550Z,25.26
2022-08-20T06:47:05.085Z,25.62
2022-08-20T06:50:20.103Z,26.02
2022-08-20T06:53:23.001Z,25.48
2022-08-20T06:56:26.068Z,25.31
2022-08-20T06:59:28.788Z,25.16
2022-08-20T07:02:31.814Z,25.49
2022-08-20T07:05:38.609Z,25.20
2022-08-20T07:08:42.682Z,24.55
2022-08-20T07:11:45.843Z,24.85
2022-08-20T07:14:48.717Z,24.74
2022-08-20T07:18:04.198Z,25.03
2022-08-20T07:21:07.220Z,25.01
2022-08-20T07:24:10.226Z,24.91
2022-08-20T07:27:13.229Z,24.98
2022-08-20T07:30:56.153Z,24.77
2022-08-20T07:34:00.563Z,24.70
2022-08-20T07:37:04.973Z,24.25
2022-08-20T07:41:13.209Z,24.56
2022-08-20T07:44:17.459Z,23.80
2022-08-20T07:47:21.078Z,23.62
2022-08-20T07:51:25.438Z,23.73
2022-08-20T07:55:49.917Z,23.64
2022-08-20T07:59:05.845Z,23.38
2022-08-20T08:02:08.491Z,22.79
2022-08-20T08:05:14.244Z,22.42
2022-08-20T08:08:25.642Z,22.26
2022-08-20T08:11:29.835Z,22.12
2022-08-20T08:14:36.686Z,21.68
2022-08-20T08:17:41.084Z,21.21
2022-08-20T08:20:46.865Z,21.30
2022-08-20T08:23:50.339Z,21.68
2022-08-20T08:26:53.165Z,21.71
2022-08-20T08:29:56.641Z,21.92
2022-08-20T08:33:18.751Z,21.21
2022-08-20T08:36:23.176Z,20.74
2022-08-20T08:39:25.928Z,21.56
2022-08-20T08:42:47.035Z,22.13
2022-08-20T08:45:57.454Z,21.61
2022-08-20T08:49:03.877Z,21.44
2022-08-20T08:52:16.059Z,21.09
2022-08-20T08:55:22.375Z,21.12
2022-08-20T08:58:28.115Z,21.26
2022-08-20T09:01:54.244Z,20.88
2022-08-20T09:05:02.011Z,20.70
2022-08-20T09:08:16.798Z,20.55
2022-08-20T09:11:23.042Z,20.01
2022-08-20T09:14:29.193Z,19.85
2022-08-20T09:17:39.654Z,19.73
2022-08-20T09:20:44.485Z,19.70
2022-08-20T09:23:48.167Z,19.49
2022-08-20T09:26:52.101Z,19.83
2022-08-20T09:29:54.754Z,20.20
2022-08-20T09:33:00.507Z,19.80
2022-08-20T09:36:03.547Z,20.26
2022-08-20T09:39:28.845Z,20.52
2022-08-20T09:42:36.351Z,20.69
2022-08-20T09:45:43.318Z,20.72
2022-08-20T09:48:45.997Z,20.62
2022-08-20T09:51:49.109Z,21.13
2022-08-20T09:54:55.418Z,20.49
2022-08-20T09:58:00.078Z,20.48
2022-08-20T10:01:15.281Z,21.04
2022-08-20T10:04:18.345Z,21.16
2022-08-20T10:07:21.166Z,21.27
2022-08-20T10:10:29.422Z,21.70
2022-08-20T10:13:55.368Z,22.21
2022-08-20T10:17:10.904Z,23.33
2022-08-20T10:20:40.326Z,23.09
2022-08-20T10:23:43.460Z,23.60
2022-08-20T10:26:46.628Z,23.41
2022-08-20T10:29:50.106Z,23.11
2022-08-20T10:32:53.184Z,22.83
2022-08-20T10:36:17.307Z,22.57
2022-08-20T10:39:22.803Z,22.52
2022-08-20T10:42:25.885Z,22.64
2022-08-20T10:45:31.417Z,22.35
2022-08-20T10:48:34.829Z,22.50
2022-08-20T10:51:38.441Z,22.71
2022-08-20T10:54:42.677Z,22.74
2022-08-20T10:57:45.836Z,22.86
2022-08-20T11:00:48.803Z,22.76
2022-08-20T11:03:51.422Z,22.77
2022-08-20T11:06:56.007Z,23.21
2022-08-20T11:09:59.174Z,22.99
2022-08-20T11:13:04.943Z,23.54
2022-08-20T11:16:08.188Z,23.18
2022-08-20T11:19:11.470Z,23.73
2022-08-20T11:22:14.161Z,23.40
2022-08-20T11:25:17.149Z,23.98
2022-08-20T11:28:31.118Z,24.07
2022-08-20T11:31:39.887Z,24.41
2022-08-20T11:34:48.251Z,24.27
2022-08-20T11:37:56.032Z,24.33
2022-08-20T11:40:59.092Z,24.45
2022-08-20T11:44:20.869Z,23.81
2022-08-20T11:47:30.186Z,24.34
2022-08-20T11:50:33.181Z,24.41
2022-08-20T11:53:36.274Z,24.48
2022-08-20T11:56:41.641Z,24.46
2022-08-20T11:59:53.664Z,24.28
2022-08-20T12:02:57.044Z,24.27
2022-08-20T12:06:27.194Z,24.22
2022-08-20T12:09:30.439Z,24.41
2022-08-20T12:12:34.183Z,24.32
2022-08-20T12:15:49.302Z,24.25
2022-08-20T12:18:52.895Z,24.48
2022-08-20T12:21:55.658Z,24.32
2022-08-20T12:24:59.078Z,23.99
2022-08-20T12:28:02.136Z,24.10
2022-08-20T12:31:06.243Z,23.99
2022-08-20T12:34:11.200Z,24.09
2022-08-20T12:37:23.602Z,24.32
2022-08-20T12:40:32.025Z,23.79
2022-08-20T12:43:36.131Z,23.87
2022-08-20T12:46:38.873Z,23.90
2022-08-20T12:50:31.469Z,24.18
2022-08-20T12:53:35.492Z,24.07
2022-08-20T12:57:34.610Z,24.02
2022-08-20T13:00:43.275Z,24.27
2022-08-20T13:03:47.632Z,23.93
2022-08-20T13:06:52.291Z,23.77
2022-08-20T13:09:55.238Z,23.83
2022-08-20T13:13:01.889Z,23.90
2022-08-20T13:16:04.903Z,23.89
2022-08-20T13:19:08.445Z,23.90
2022-08-20T13:22:47.396Z,23.73
2022-08-20T13:25:58.455Z,23.91
2022-08-20T13:29:08.963Z,23.81
2022-08-20T13:32:17.073Z,24.05
2022-08-20T13:35:41.766Z,24.13
2022-08-20T13:38:44.830Z,24.01
2022-08-20T13:42:13.552Z,23.96
2022-08-20T13:45:18.353Z,24.05
2022-08-20T13:49:05.106Z,24.01
2022-08-20T13:52:56.074Z,24.08
2022-08-20T13:55:59.010Z,24.18
2022-08-20T13:59:02.809Z,23.91
2022-08-20T14:02:57.151Z,23.56
2022-08-20T14:10:25.008Z,23.96
2022-08-20T14:13:29.853Z,24.11
2022-08-20T14:16:56.649Z,23.96
2022-08-20T14:20:17.834Z,23.95
2022-08-20T14:23:57.327Z,23.92
2022-08-20T14:27:01.169Z,23.92
2022-08-20T14:30:07.023Z,23.90
2022-08-20T14:33:12.861Z,23.67
2022-08-20T14:37:26.342Z,23.84
2022-08-20T14:40:29.553Z,24.15
2022-08-20T14:43:32.403Z,23.83
2022-08-20T14:46:35.460Z,23.99
2022-08-20T14:49:39.344Z,24.01
2022-08-20T14:52:44.365Z,23.90
2022-08-20T14:55:47.690Z,24.15
2022-08-20T14:58:51.131Z,24.07
2022-08-20T15:01:56.319Z,23.97
2022-08-20T15:08:21.040Z,23.85
2022-08-20T15:11:24.724Z,23.65
2022-08-20T15:14:27.879Z,23.90
2022-08-20T15:17:34.215Z,23.97
2022-08-20T15:20:37.642Z,23.98
2022-08-20T15:23:42.812Z,23.90
2022-08-20T15:26:45.785Z,24.05
2022-08-20T15:29:50.711Z,24.19
2022-08-20T15:32:56.323Z,24.17
2022-08-20T15:36:00.313Z,24.28
2022-08-20T15:39:03.070Z,23.73
2022-08-20T15:42:07.041Z,24.30
2022-08-20T15:45:10.747Z,23.78
2022-08-20T15:48:20.458Z,24.02
2022-08-20T15:51:33.207Z,23.66
2022-08-20T15:54:36.923Z,23.59
2022-08-20T15:58:04.329Z,23.40
2022-08-20T16:01:26.025Z,23.68
2022-08-20T16:04:59.115Z,23.54
2022-08-20T16:08:33.921Z,23.76
2022-08-20T16:11:59.578Z,23.72
2022-08-20T16:15:46.301Z,23.68
2022-08-20T16:19:03.271Z,23.73
2022-08-20T16:23:13.506Z,23.26
2022-08-20T16:26:53.640Z,23.21
2022-08-20T16:30:06.352Z,23.04
2022-08-20T16:33:26.244Z,23.15
2022-08-20T16:36:39.276Z,23.12
2022-08-20T16:48:37.226Z,22.77
2022-08-20T16:51:50.918Z,22.94
2022-08-20T16:54:56.944Z,22.67
2022-08-20T16:58:04.884Z,22.72
2022-08-20T17:01:10.461Z,22.74
2022-08-20T17:04:22.494Z,22.64
2022-08-20T17:07:43.140Z,22.72
2022-08-20T17:11:00.077Z,22.79
2022-08-20T17:14:10.978Z,22.75
2022-08-20T17:17:34.377Z,22.62
2022-08-20T17:20:44.028Z,22.40
2022-08-20T17:23:56.343Z,22.49
2022-08-20T17:27:10.054Z,22.40
2022-08-20T17:30:22.388Z,22.58
2022-08-20T17:33:33.609Z,22.48
2022-08-20T17:36:49.537Z,22.67
2022-08-20T17:40:15.310Z,22.60
2022-08-20T17:43:30.968Z,22.62
2022-08-20T17:46:41.730Z,22.60
2022-08-20T17:50:02.749Z,22.60
2022-08-20T17:53:32.165Z,22.40
2022-08-20T17:56:40.129Z,22.47
2022-08-20T18:00:01.923Z,22.22
2022-08-20T18:03:13.726Z,22.57
2022-08-20T18:06:51.401Z,22.35
2022-08-20T18:10:16.446Z,21.98
2022-08-20T18:13:48.352Z,21.93
2022-08-20T18:17:18.694Z,21.93
2022-08-20T18:20:44.356Z,21.99
2022-08-20T18:24:11.653Z,22.17
2022-08-20T18:27:18.986Z,22.21
2022-08-20T18:30:26.203Z,22.10
2022-08-20T18:33:44.138Z,21.82
2022-08-20T18:36:56.871Z,21.86
2022-08-20T18:40:33.201Z,21.83
2022-08-20T18:47:46.990Z,21.76
2022-08-20T18:50:56.682Z,21.82
2022-08-20T18:53:59.708Z,21.91
2022-08-20T18:57:18.562Z,21.91
2022-08-20T19:00:24.619Z,21.70
2022-08-20T19:03:36.817Z,21.73
2022-08-20T19:06:48.350Z,21.52
2022-08-20T19:10:09.296Z,21.95
2022-08-20T19:13:40.991Z,21.70
2022-08-20T19:17:00.035Z,21.50
2022-08-20T19:20:09.188Z,21.59
2022-08-20T19:23:23.923Z,21.57
2022-08-20T19:26:30.829Z,21.58
2022-08-20T19:29:49.487Z,21.60
2022-08-20T19:32:53.045Z,21.53
2022-08-20T19:35:56.575Z,21.53
2022-08-20T19:39:03.616Z,21.68
2022-08-20T19:42:07.586Z,21.63
2022-08-20T19:45:23.419Z,21.68
2022-08-20T19:48:27.825Z,21.49
2022-08-20T19:51:39.014Z,21.43
2022-08-20T19:55:06.615Z,21.26
2022-08-20T19:59:10.796Z,21.48
2022-08-20T20:02:20.056Z,21.45
2022-08-20T20:05:24.709Z,21.40
2022-08-20T20:08:39.700Z,21.51
2022-08-20T20:11:48.959Z,21.58
2022-08-20T20:14:54.986Z,21.56
2022-08-20T20:17:59.617Z,21.53
2022-08-20T20:21:25.033Z,21.54
2022-08-20T20:24:32.777Z,21.64
2022-08-20T20:27:36.785Z,21.84
2022-08-20T20:30:41.068Z,21.76
2022-08-20T20:33:44.541Z,21.87
2022-08-20T20:36:48.349Z,21.90
2022-08-20T20:40:07.229Z,21.91
2022-08-20T20:43:29.930Z,21.98
2022-08-20T20:46:39.563Z,21.72
2022-08-20T20:49:48.944Z,21.93
2022-08-20T20:52:57.404Z,21.81
2022-08-20T20:56:00.592Z,21.70
2022-08-20T20:59:07.065Z,21.67
2022-08-20T21:02:10.390Z,21.87
2022-08-20T21:05:15.677Z,21.95
2022-08-20T21:08:19.220Z,21.86
2022-08-20T21:11:22.002Z,21.73
2022-08-20T21:14:24.961Z,21.68
2022-08-20T21:17:27.646Z,21.68
2022-08-20T21:20:31.464Z,21.78
2022-08-20T21:23:40.050Z,21.73
2022-08-20T21:26:46.330Z,21.77
2022-08-20T21:29:48.960Z,21.77
2022-08-20T21:32:52.072Z,21.86
2022-08-20T21:35:54.682Z,21.72
2022-08-20T21:38:59.348Z,21.75
2022-08-20T21:42:04.628Z,21.50
2022-08-20T21:45:24.171Z,21.68
2022-08-20T21:48:31.146Z,21.70
2022-08-20T21:51:35.832Z,21.47
2022-08-20T21:54:38.476Z,21.69
2022-08-20T21:57:42.858Z,21.59
2022-08-20T22:01:01.942Z,21.75
2022-08-20T22:04:06.714Z,21.64
2022-08-20T22:07:11.441Z,21.58
2022-08-20T22:10:14.604Z,21.59
2022-08-20T22:13:17.387Z,21.44
2022-08-20T22:16:21.765Z,21.44
2022-08-20T22:19:24.469Z,21.32
2022-08-20T22:22:27.671Z,21.08
2022-08-20T22:25:30.497Z,21.19
2022-08-20T22:28:34.003Z,21.47
2022-08-20T22:31:38.842Z,21.29
2022-08-20T22:34:42.328Z,21.49
2022-08-20T22:37:45.608Z,21.32
2022-08-20T22:40:49.044Z,21.46
2022-08-20T22:43:57.237Z,21.23
2022-08-20T22:47:05.248Z,21.47
2022-08-20T22:50:09.191Z,21.31
2022-08-20T22:53:13.596Z,21.36
2022-08-20T22:56:19.883Z,21.22
2022-08-20T22:59:24.859Z,21.20
2022-08-20T23:02:30.293Z,21.17
2022-08-20T23:05:36.567Z,21.44
2022-08-20T23:08:40.378Z,21.27
2022-08-20T23:11:44.679Z,21.27
2022-08-20T23:14:47.366Z,21.09
2022-08-20T23:17:50.518Z,20.99
2022-08-20T23:20:58.673Z,21.04
2022-08-20T23:24:02.953Z,20.87
2022-08-20T23:27:07.228Z,20.81
2022-08-20T23:30:11.242Z,21.03
2022-08-20T23:33:14.281Z,20.79
2022-08-20T23:36:19.713Z,20.69
2022-08-20T23:39:22.765Z,20.80
2022-08-20T23:42:25.615Z,21.04
2022-08-20T23:45:31.940Z,20.73
2022-08-20T23:48:36.002Z,20.90
2022-08-20T23:51:39.133Z,20.99
2022-08-20T23:54:42.082Z,20.69
2022-08-20T23:57:44.926Z,20.83
